sensor_id;sensor_type;location;lat;lon;timestamp;P1;durP1;ratioP1;P2;durP2;ratioP2
34471;SDS011;20710;49.976;19.836;2022-12-04T00:00:37;130.60;;;51.45;;
34471;SDS011;20710;49.976;19.836;2022-12-04T00:06:43;122.90;;;50.58;;
34471;SDS011;20710;49.976;19.836;2022-12-04T00:12:47;119.85;;;48.00;;
34471;SDS011;20710;49.976;19.836;2022-12-04T00:18:48;116.22;;;47.62;;
34471;SDS011;20710;49.976;19.836;2022-12-04T00:24:51;115.60;;;48.60;;
34471;SDS011;20710;49.976;19.836;2022-12-04T00:30:52;119.82;;;49.18;;
34471;SDS011;20710;49.976;19.836;2022-12-04T00:36:54;125.85;;;50.30;;
34471;SDS011;20710;49.976;19.836;2022-12-04T00:42:55;121.35;;;49.73;;
34471;SDS011;20710;49.976;19.836;2022-12-04T00:48:57;129.87;;;52.75;;
34471;SDS011;20710;49.976;19.836;2022-12-04T00:55:00;133.47;;;53.80;;
34471;SDS011;20710;49.976;19.836;2022-12-04T01:01:03;118.25;;;50.15;;
34471;SDS011;20710;49.976;19.836;2022-12-04T01:07:13;121.70;;;49.75;;
34471;SDS011;20710;49.976;19.836;2022-12-04T01:13:15;111.95;;;48.80;;
34471;SDS011;20710;49.976;19.836;2022-12-04T01:19:16;108.05;;;46.20;;
34471;SDS011;20710;49.976;19.836;2022-12-04T01:25:18;106.80;;;44.65;;
34471;SDS011;20710;49.976;19.836;2022-12-04T01:31:20;96.78;;;42.73;;
34471;SDS011;20710;49.976;19.836;2022-12-04T01:37:22;93.12;;;40.23;;
34471;SDS011;20710;49.976;19.836;2022-12-04T01:43:24;97.35;;;42.30;;
34471;SDS011;20710;49.976;19.836;2022-12-04T01:49:41;101.87;;;42.03;;
34471;SDS011;20710;49.976;19.836;2022-12-04T01:55:47;101.18;;;42.23;;
34471;SDS011;20710;49.976;19.836;2022-12-04T02:01:51;98.87;;;41.60;;
34471;SDS011;20710;49.976;19.836;2022-12-04T02:07:58;99.28;;;39.18;;
34471;SDS011;20710;49.976;19.836;2022-12-04T02:27:00;101.38;;;39.58;;
34471;SDS011;20710;49.976;19.836;2022-12-04T02:33:14;94.83;;;39.63;;
34471;SDS011;20710;49.976;19.836;2022-12-04T02:39:39;99.92;;;39.48;;
34471;SDS011;20710;49.976;19.836;2022-12-04T02:45:47;90.50;;;38.23;;
34471;SDS011;20710;49.976;19.836;2022-12-04T02:52:02;82.35;;;36.70;;
34471;SDS011;20710;49.976;19.836;2022-12-04T02:58:19;85.95;;;34.08;;
34471;SDS011;20710;49.976;19.836;2022-12-04T03:04:28;89.03;;;34.88;;
34471;SDS011;20710;49.976;19.836;2022-12-04T03:10:37;85.87;;;34.25;;
34471;SDS011;20710;49.976;19.836;2022-12-04T03:16:40;97.08;;;33.70;;
34471;SDS011;20710;49.976;19.836;2022-12-04T03:22:43;80.47;;;32.73;;
34471;SDS011;20710;49.976;19.836;2022-12-04T03:28:50;73.57;;;30.87;;
34471;SDS011;20710;49.976;19.836;2022-12-04T03:35:18;72.50;;;31.12;;
34471;SDS011;20710;49.976;19.836;2022-12-04T03:42:30;71.77;;;30.82;;
34471;SDS011;20710;49.976;19.836;2022-12-04T03:48:08;75.43;;;30.37;;
34471;SDS011;20710;49.976;19.836;2022-12-04T03:54:11;78.65;;;30.95;;
34471;SDS011;20710;49.976;19.836;2022-12-04T04:00:19;71.87;;;28.52;;
34471;SDS011;20710;49.976;19.836;2022-12-04T04:06:24;83.20;;;30.37;;
34471;SDS011;20710;49.976;19.836;2022-12-04T04:12:29;75.30;;;31.45;;
34471;SDS011;20710;49.976;19.836;2022-12-04T04:18:35;84.85;;;31.65;;
34471;SDS011;20710;49.976;19.836;2022-12-04T04:43:50;80.87;;;32.33;;
34471;SDS011;20710;49.976;19.836;2022-12-04T04:49:55;86.37;;;30.55;;
34471;SDS011;20710;49.976;19.836;2022-12-04T04:56:03;70.52;;;29.23;;
34471;SDS011;20710;49.976;19.836;2022-12-04T05:02:06;68.10;;;29.30;;
34471;SDS011;20710;49.976;19.836;2022-12-04T05:08:09;80.87;;;28.75;;
34471;SDS011;20710;49.976;19.836;2022-12-04T05:14:10;64.27;;;26.62;;
34471;SDS011;20710;49.976;19.836;2022-12-04T05:20:12;73.52;;;27.30;;
34471;SDS011;20710;49.976;19.836;2022-12-04T05:26:14;75.03;;;28.32;;
34471;SDS011;20710;49.976;19.836;2022-12-04T05:32:16;68.40;;;27.20;;
34471;SDS011;20710;49.976;19.836;2022-12-04T05:38:25;58.02;;;24.92;;
34471;SDS011;20710;49.976;19.836;2022-12-04T05:44:27;67.10;;;24.47;;
34471;SDS011;20710;49.976;19.836;2022-12-04T05:50:29;56.10;;;25.00;;
34471;SDS011;20710;49.976;19.836;2022-12-04T05:56:31;64.60;;;26.85;;
34471;SDS011;20710;49.976;19.836;2022-12-04T06:02:32;59.20;;;25.02;;
34471;SDS011;20710;49.976;19.836;2022-12-04T06:08:46;58.78;;;26.10;;
34471;SDS011;20710;49.976;19.836;2022-12-04T06:14:50;69.80;;;27.93;;
34471;SDS011;20710;49.976;19.836;2022-12-04T06:20:56;62.70;;;25.00;;
34471;SDS011;20710;49.976;19.836;2022-12-04T06:26:58;74.80;;;29.07;;
34471;SDS011;20710;49.976;19.836;2022-12-04T06:39:06;73.87;;;25.40;;
34471;SDS011;20710;49.976;19.836;2022-12-04T06:45:09;69.75;;;27.42;;
34471;SDS011;20710;49.976;19.836;2022-12-04T06:51:16;68.67;;;27.62;;
34471;SDS011;20710;49.976;19.836;2022-12-04T06:57:20;53.65;;;25.35;;
34471;SDS011;20710;49.976;19.836;2022-12-04T07:03:22;57.35;;;23.35;;
34471;SDS011;20710;49.976;19.836;2022-12-04T07:09:25;59.10;;;26.20;;
34471;SDS011;20710;49.976;19.836;2022-12-04T07:15:29;58.65;;;26.37;;
34471;SDS011;20710;49.976;19.836;2022-12-04T07:21:33;58.98;;;26.37;;
34471;SDS011;20710;49.976;19.836;2022-12-04T07:27:35;58.45;;;24.77;;
34471;SDS011;20710;49.976;19.836;2022-12-04T07:33:37;57.85;;;24.20;;
34471;SDS011;20710;49.976;19.836;2022-12-04T07:39:40;55.05;;;26.17;;
34471;SDS011;20710;49.976;19.836;2022-12-04T07:45:42;54.30;;;24.47;;
34471;SDS011;20710;49.976;19.836;2022-12-04T07:51:44;55.50;;;25.80;;
34471;SDS011;20710;49.976;19.836;2022-12-04T07:57:46;49.20;;;25.15;;
34471;SDS011;20710;49.976;19.836;2022-12-04T08:03:54;51.73;;;24.63;;
34471;SDS011;20710;49.976;19.836;2022-12-04T08:09:57;55.10;;;25.90;;
34471;SDS011;20710;49.976;19.836;2022-12-04T08:16:02;58.65;;;25.97;;
34471;SDS011;20710;49.976;19.836;2022-12-04T08:22:06;56.30;;;25.48;;
34471;SDS011;20710;49.976;19.836;2022-12-04T08:28:07;52.23;;;25.77;;
34471;SDS011;20710;49.976;19.836;2022-12-04T08:34:09;60.10;;;25.92;;
34471;SDS011;20710;49.976;19.836;2022-12-04T08:40:11;53.08;;;26.00;;
34471;SDS011;20710;49.976;19.836;2022-12-04T08:46:14;55.75;;;27.20;;
34471;SDS011;20710;49.976;19.836;2022-12-04T08:52:17;54.73;;;25.57;;
34471;SDS011;20710;49.976;19.836;2022-12-04T08:58:19;50.00;;;23.77;;
34471;SDS011;20710;49.976;19.836;2022-12-04T09:04:20;60.30;;;26.50;;
34471;SDS011;20710;49.976;19.836;2022-12-04T09:10:25;47.70;;;22.77;;
34471;SDS011;20710;49.976;19.836;2022-12-04T09:16:26;52.08;;;25.75;;
34471;SDS011;20710;49.976;19.836;2022-12-04T09:22:33;54.25;;;26.25;;
34471;SDS011;20710;49.976;19.836;2022-12-04T09:28:38;58.85;;;27.20;;
34471;SDS011;20710;49.976;19.836;2022-12-04T09:34:38;59.53;;;27.75;;
34471;SDS011;20710;49.976;19.836;2022-12-04T09:40:45;58.48;;;26.52;;
34471;SDS011;20710;49.976;19.836;2022-12-04T09:46:57;59.77;;;27.05;;
34471;SDS011;20710;49.976;19.836;2022-12-04T09:53:17;56.08;;;25.72;;
34471;SDS011;20710;49.976;19.836;2022-12-04T09:59:26;54.10;;;26.23;;
34471;SDS011;20710;49.976;19.836;2022-12-04T10:18:39;57.70;;;27.58;;
34471;SDS011;20710;49.976;19.836;2022-12-04T10:24:59;59.58;;;27.35;;
34471;SDS011;20710;49.976;19.836;2022-12-04T10:31:14;59.40;;;27.13;;
34471;SDS011;20710;49.976;19.836;2022-12-04T10:37:16;62.38;;;28.60;;
34471;SDS011;20710;49.976;19.836;2022-12-04T10:49:46;60.03;;;28.70;;
34471;SDS011;20710;49.976;19.836;2022-12-04T10:55:48;57.03;;;29.42;;
34471;SDS011;20710;49.976;19.836;2022-12-04T11:14:46;65.25;;;34.90;;
34471;SDS011;20710;49.976;19.836;2022-12-04T11:20:52;69.65;;;35.45;;
34471;SDS011;20710;49.976;19.836;2022-12-04T11:27:04;62.70;;;33.67;;
34471;SDS011;20710;49.976;19.836;2022-12-04T11:33:13;68.62;;;36.85;;
34471;SDS011;20710;49.976;19.836;2022-12-04T11:40:02;64.30;;;36.35;;
34471;SDS011;20710;49.976;19.836;2022-12-04T11:46:14;64.53;;;35.92;;
34471;SDS011;20710;49.976;19.836;2022-12-04T12:17:32;52.03;;;30.77;;
34471;SDS011;20710;49.976;19.836;2022-12-04T12:31:00;52.75;;;29.92;;
34471;SDS011;20710;49.976;19.836;2022-12-04T12:43:52;53.70;;;31.10;;
34471;SDS011;20710;49.976;19.836;2022-12-04T12:50:09;56.00;;;32.23;;
34471;SDS011;20710;49.976;19.836;2022-12-04T12:56:32;48.95;;;29.10;;
34471;SDS011;20710;49.976;19.836;2022-12-04T13:09:50;51.70;;;30.02;;
34471;SDS011;20710;49.976;19.836;2022-12-04T13:16:36;54.10;;;30.77;;
34471;SDS011;20710;49.976;19.836;2022-12-04T13:22:29;50.03;;;28.75;;
34471;SDS011;20710;49.976;19.836;2022-12-04T13:54:41;70.65;;;39.92;;
34471;SDS011;20710;49.976;19.836;2022-12-04T14:00:43;62.95;;;35.25;;
34471;SDS011;20710;49.976;19.836;2022-12-04T14:06:44;54.95;;;31.65;;
34471;SDS011;20710;49.976;19.836;2022-12-04T14:13:40;46.67;;;24.87;;
34471;SDS011;20710;49.976;19.836;2022-12-04T14:19:06;40.07;;;22.03;;
34471;SDS011;20710;49.976;19.836;2022-12-04T14:31:24;39.83;;;22.13;;
34471;SDS011;20710;49.976;19.836;2022-12-04T15:18:38;52.65;;;26.87;;
34471;SDS011;20710;49.976;19.836;2022-12-04T15:32:02;56.18;;;26.97;;
34471;SDS011;20710;49.976;19.836;2022-12-04T16:17:41;54.27;;;27.20;;
34471;SDS011;20710;49.976;19.836;2022-12-04T16:23:42;52.98;;;28.05;;
34471;SDS011;20710;49.976;19.836;2022-12-04T16:48:55;57.20;;;29.18;;
34471;SDS011;20710;49.976;19.836;2022-12-04T17:14:27;66.02;;;32.38;;
34471;SDS011;20710;49.976;19.836;2022-12-04T17:20:29;60.40;;;29.12;;
34471;SDS011;20710;49.976;19.836;2022-12-04T17:39:52;59.40;;;28.23;;
34471;SDS011;20710;49.976;19.836;2022-12-04T17:45:54;56.80;;;28.85;;
34471;SDS011;20710;49.976;19.836;2022-12-04T17:51:56;55.58;;;27.32;;
34471;SDS011;20710;49.976;19.836;2022-12-04T17:57:57;62.55;;;29.87;;
34471;SDS011;20710;49.976;19.836;2022-12-04T18:04:00;58.63;;;29.50;;
34471;SDS011;20710;49.976;19.836;2022-12-04T18:10:04;60.70;;;30.15;;
34471;SDS011;20710;49.976;19.836;2022-12-04T18:16:08;56.37;;;27.58;;
34471;SDS011;20710;49.976;19.836;2022-12-04T18:22:30;62.15;;;28.87;;
34471;SDS011;20710;49.976;19.836;2022-12-04T18:54:25;57.60;;;28.70;;
34471;SDS011;20710;49.976;19.836;2022-12-04T19:26:45;59.10;;;29.70;;
34471;SDS011;20710;49.976;19.836;2022-12-04T19:33:06;63.95;;;30.43;;
34471;SDS011;20710;49.976;19.836;2022-12-04T19:51:56;73.72;;;36.00;;
34471;SDS011;20710;49.976;19.836;2022-12-04T19:58:12;69.55;;;32.80;;
34471;SDS011;20710;49.976;19.836;2022-12-04T20:17:44;72.05;;;35.78;;
34471;SDS011;20710;49.976;19.836;2022-12-04T20:23:50;66.33;;;31.85;;
34471;SDS011;20710;49.976;19.836;2022-12-04T20:36:05;62.40;;;29.10;;
34471;SDS011;20710;49.976;19.836;2022-12-04T20:42:27;67.15;;;29.60;;
34471;SDS011;20710;49.976;19.836;2022-12-04T20:48:36;117.70;;;63.28;;
34471;SDS011;20710;49.976;19.836;2022-12-04T21:01:47;58.33;;;28.40;;
34471;SDS011;20710;49.976;19.836;2022-12-04T21:14:55;56.63;;;28.50;;
34471;SDS011;20710;49.976;19.836;2022-12-04T21:21:25;62.00;;;30.95;;
34471;SDS011;20710;49.976;19.836;2022-12-04T21:27:27;64.45;;;29.63;;
34471;SDS011;20710;49.976;19.836;2022-12-04T21:33:48;66.40;;;32.15;;
34471;SDS011;20710;49.976;19.836;2022-12-04T21:46:13;64.50;;;30.60;;
34471;SDS011;20710;49.976;19.836;2022-12-04T21:52:16;69.58;;;34.48;;
34471;SDS011;20710;49.976;19.836;2022-12-04T21:58:20;64.72;;;31.17;;
34471;SDS011;20710;49.976;19.836;2022-12-04T22:04:24;74.85;;;35.20;;
34471;SDS011;20710;49.976;19.836;2022-12-04T22:10:25;69.25;;;32.33;;
34471;SDS011;20710;49.976;19.836;2022-12-04T22:16:27;67.40;;;33.50;;
34471;SDS011;20710;49.976;19.836;2022-12-04T22:22:29;69.32;;;32.88;;
34471;SDS011;20710;49.976;19.836;2022-12-04T22:28:30;67.05;;;32.05;;
34471;SDS011;20710;49.976;19.836;2022-12-04T22:34:32;63.40;;;31.82;;
34471;SDS011;20710;49.976;19.836;2022-12-04T22:40:37;65.80;;;32.58;;
34471;SDS011;20710;49.976;19.836;2022-12-04T23:05:17;65.25;;;32.78;;
34471;SDS011;20710;49.976;19.836;2022-12-04T23:11:19;66.87;;;32.90;;
34471;SDS011;20710;49.976;19.836;2022-12-04T23:17:21;56.63;;;29.00;;
34471;SDS011;20710;49.976;19.836;2022-12-04T23:23:24;66.62;;;32.40;;
34471;SDS011;20710;49.976;19.836;2022-12-04T23:42:00;65.83;;;31.60;;
34471;SDS011;20710;49.976;19.836;2022-12-04T23:48:01;68.17;;;32.30;;
34471;SDS011;20710;49.976;19.836;2022-12-04T23:54:03;68.75;;;31.93;;
